sensor_id;sensor_type;location;lat;lon;timestamp;pressure;altitude;pressure_sealevel;temperature;humidity
21236;BME280;10775;42.678;26.324;2023-04-01T00:00:23;97950.63;;;9.10;63.93
21236;BME280;10775;42.678;26.324;2023-04-01T00:02:49;97952.47;;;9.08;63.46
21236;BME280;10775;42.678;26.324;2023-04-01T00:05:15;97955.00;;;9.09;62.89
21236;BME280;10775;42.678;26.324;2023-04-01T00:07:42;97962.81;;;9.11;68.63
21236;BME280;10775;42.678;26.324;2023-04-01T00:10:10;97959.44;;;9.06;63.90
21236;BME280;10775;42.678;26.324;2023-04-01T00:12:37;97946.50;;;9.03;67.42
21236;BME280;10775;42.678;26.324;2023-04-01T00:15:05;97950.09;;;8.97;70.80
21236;BME280;10775;42.678;26.324;2023-04-01T00:17:31;97953.81;;;8.87;65.29
21236;BME280;10775;42.678;26.324;2023-04-01T00:19:56;97958.81;;;8.96;69.93
21236;BME280;10775;42.678;26.324;2023-04-01T00:22:23;97951.09;;;8.93;67.26
21236;BME280;10775;42.678;26.324;2023-04-01T00:24:49;97938.19;;;8.87;69.90
21236;BME280;10775;42.678;26.324;2023-04-01T00:27:15;97943.28;;;8.91;68.49
21236;BME280;10775;42.678;26.324;2023-04-01T00:29:45;97930.13;;;8.96;63.83
21236;BME280;10775;42.678;26.324;2023-04-01T00:32:11;97920.81;;;8.87;69.31
21236;BME280;10775;42.678;26.324;2023-04-01T00:34:36;97929.41;;;8.91;65.99
21236;BME280;10775;42.678;26.324;2023-04-01T00:37:03;97925.03;;;8.91;66.69
21236;BME280;10775;42.678;26.324;2023-04-01T00:39:30;97920.00;;;8.85;64.58
21236;BME280;10775;42.678;26.324;2023-04-01T00:41:55;97906.06;;;8.86;68.69
21236;BME280;10775;42.678;26.324;2023-04-01T00:44:27;97896.34;;;8.93;65.61
21236;BME280;10775;42.678;26.324;2023-04-01T00:46:53;97894.59;;;8.92;65.39
21236;BME280;10775;42.678;26.324;2023-04-01T00:49:23;97895.50;;;8.92;67.39
21236;BME280;10775;42.678;26.324;2023-04-01T00:51:51;97892.06;;;8.90;66.23
21236;BME280;10775;42.678;26.324;2023-04-01T00:54:19;97881.75;;;8.86;67.36
21236;BME280;10775;42.678;26.324;2023-04-01T00:56:54;97886.13;;;8.84;64.21
21236;BME280;10775;42.678;26.324;2023-04-01T00:59:30;97889.66;;;8.83;70.91
21236;BME280;10775;42.678;26.324;2023-04-01T01:01:57;97890.03;;;8.67;67.54
21236;BME280;10775;42.678;26.324;2023-04-01T01:04:31;97888.09;;;8.76;68.01
21236;BME280;10775;42.678;26.324;2023-04-01T01:14:55;97881.31;;;8.68;65.51
21236;BME280;10775;42.678;26.324;2023-04-01T01:17:33;97871.63;;;8.74;71.16
21236;BME280;10775;42.678;26.324;2023-04-01T01:22:59;97876.56;;;8.84;69.86
21236;BME280;10775;42.678;26.324;2023-04-01T01:25:42;97871.31;;;8.86;70.58
21236;BME280;10775;42.678;26.324;2023-04-01T01:28:42;97865.13;;;8.90;67.58
21236;BME280;10775;42.678;26.324;2023-04-01T01:31:22;97864.94;;;8.98;68.21
21236;BME280;10775;42.678;26.324;2023-04-01T01:36:56;97865.28;;;8.84;73.47
21236;BME280;10775;42.678;26.324;2023-04-01T01:39:26;97856.84;;;8.74;68.52
21236;BME280;10775;42.678;26.324;2023-04-01T01:41:57;97858.50;;;8.77;69.12
21236;BME280;10775;42.678;26.324;2023-04-01T01:44:25;97858.47;;;8.80;65.93
21236;BME280;10775;42.678;26.324;2023-04-01T01:46:53;97867.88;;;8.84;65.03
21236;BME280;10775;42.678;26.324;2023-04-01T01:49:19;97866.88;;;8.89;66.90
21236;BME280;10775;42.678;26.324;2023-04-01T01:51:45;97868.53;;;8.92;64.46
21236;BME280;10775;42.678;26.324;2023-04-01T01:54:15;97862.44;;;8.93;66.85
21236;BME280;10775;42.678;26.324;2023-04-01T01:56:45;97855.69;;;8.84;65.36
21236;BME280;10775;42.678;26.324;2023-04-01T01:59:12;97854.84;;;8.84;64.82
21236;BME280;10775;42.678;26.324;2023-04-01T02:01:42;97849.63;;;8.85;68.91
21236;BME280;10775;42.678;26.324;2023-04-01T02:04:11;97851.31;;;8.86;69.12
21236;BME280;10775;42.678;26.324;2023-04-01T02:06:46;97855.78;;;8.81;72.00
21236;BME280;10775;42.678;26.324;2023-04-01T02:09:13;97848.97;;;8.77;73.08
21236;BME280;10775;42.678;26.324;2023-04-01T02:11:51;97845.47;;;8.77;67.60
21236;BME280;10775;42.678;26.324;2023-04-01T02:14:21;97847.22;;;8.78;66.30
21236;BME280;10775;42.678;26.324;2023-04-01T02:16:56;97846.28;;;8.80;70.76
21236;BME280;10775;42.678;26.324;2023-04-01T02:19:26;97842.84;;;8.78;67.76
21236;BME280;10775;42.678;26.324;2023-04-01T02:21:59;97846.38;;;8.76;67.24
21236;BME280;10775;42.678;26.324;2023-04-01T02:24:28;97843.59;;;8.83;66.77
21236;BME280;10775;42.678;26.324;2023-04-01T02:26:55;97843.38;;;8.91;64.58
21236;BME280;10775;42.678;26.324;2023-04-01T02:29:23;97843.34;;;8.92;64.37
21236;BME280;10775;42.678;26.324;2023-04-01T02:31:51;97835.53;;;8.92;64.65
21236;BME280;10775;42.678;26.324;2023-04-01T02:34:18;97825.94;;;8.93;63.95
21236;BME280;10775;42.678;26.324;2023-04-01T02:36:44;97833.69;;;8.96;64.39
21236;BME280;10775;42.678;26.324;2023-04-01T02:39:09;97831.06;;;8.96;63.69
21236;BME280;10775;42.678;26.324;2023-04-01T02:41:42;97828.56;;;8.93;63.67
21236;BME280;10775;42.678;26.324;2023-04-01T02:44:09;97834.66;;;8.92;63.84
21236;BME280;10775;42.678;26.324;2023-04-01T02:46:35;97825.22;;;8.88;63.81
21236;BME280;10775;42.678;26.324;2023-04-01T02:49:00;97831.41;;;8.84;69.84
21236;BME280;10775;42.678;26.324;2023-04-01T02:51:26;97833.31;;;8.77;75.21
21236;BME280;10775;42.678;26.324;2023-04-01T02:53:51;97817.94;;;8.66;78.63
21236;BME280;10775;42.678;26.324;2023-04-01T02:56:17;97819.88;;;8.60;74.90
21236;BME280;10775;42.678;26.324;2023-04-01T02:58:44;97819.06;;;8.58;80.74
21236;BME280;10775;42.678;26.324;2023-04-01T03:01:10;97813.94;;;8.53;69.13
21236;BME280;10775;42.678;26.324;2023-04-01T03:03:35;97813.81;;;8.59;67.87
21236;BME280;10775;42.678;26.324;2023-04-01T03:06:08;97810.13;;;8.66;66.52
21236;BME280;10775;42.678;26.324;2023-04-01T03:08:34;97806.56;;;8.70;66.19
21236;BME280;10775;42.678;26.324;2023-04-01T03:11:00;97809.13;;;8.72;68.95
21236;BME280;10775;42.678;26.324;2023-04-01T03:13:26;97809.91;;;8.76;67.42
21236;BME280;10775;42.678;26.324;2023-04-01T03:15:51;97805.50;;;8.78;65.47
21236;BME280;10775;42.678;26.324;2023-04-01T03:18:17;97798.63;;;8.75;65.37
21236;BME280;10775;42.678;26.324;2023-04-01T03:20:42;97795.97;;;8.77;65.98
21236;BME280;10775;42.678;26.324;2023-04-01T03:23:08;97816.03;;;8.75;65.56
21236;BME280;10775;42.678;26.324;2023-04-01T03:25:33;97814.28;;;8.74;66.29
21236;BME280;10775;42.678;26.324;2023-04-01T03:27:59;97812.53;;;8.74;64.99
21236;BME280;10775;42.678;26.324;2023-04-01T03:30:26;97814.25;;;8.75;67.74
21236;BME280;10775;42.678;26.324;2023-04-01T03:32:52;97812.59;;;8.73;65.89
21236;BME280;10775;42.678;26.324;2023-04-01T03:35:18;97811.03;;;8.65;73.92
21236;BME280;10775;42.678;26.324;2023-04-01T03:37:43;97811.22;;;8.59;74.62
21236;BME280;10775;42.678;26.324;2023-04-01T03:40:09;97805.19;;;8.57;66.34
21236;BME280;10775;42.678;26.324;2023-04-01T03:42:35;97807.69;;;8.60;67.58
21236;BME280;10775;42.678;26.324;2023-04-01T03:45:02;97806.75;;;8.63;66.74
21236;BME280;10775;42.678;26.324;2023-04-01T03:47:28;97810.19;;;8.65;65.50
21236;BME280;10775;42.678;26.324;2023-04-01T03:49:53;97805.81;;;8.65;67.07
21236;BME280;10775;42.678;26.324;2023-04-01T03:52:19;97810.22;;;8.63;65.03
21236;BME280;10775;42.678;26.324;2023-04-01T03:54:44;97817.22;;;8.61;65.77
21236;BME280;10775;42.678;26.324;2023-04-01T03:57:10;97813.94;;;8.53;69.58
21236;BME280;10775;42.678;26.324;2023-04-01T03:59:35;97812.38;;;8.47;71.13
21236;BME280;10775;42.678;26.324;2023-04-01T04:02:01;97809.00;;;8.44;70.65
21236;BME280;10775;42.678;26.324;2023-04-01T04:04:27;97801.28;;;8.39;70.10
21236;BME280;10775;42.678;26.324;2023-04-01T04:06:53;97809.00;;;8.44;66.88
21236;BME280;10775;42.678;26.324;2023-04-01T04:09:18;97803.63;;;8.50;71.00
21236;BME280;10775;42.678;26.324;2023-04-01T04:11:44;97814.94;;;8.49;73.06
21236;BME280;10775;42.678;26.324;2023-04-01T04:14:10;97812.34;;;8.49;70.14
21236;BME280;10775;42.678;26.324;2023-04-01T04:16:35;97805.19;;;8.57;66.38
21236;BME280;10775;42.678;26.324;2023-04-01T04:19:04;97806.75;;;8.64;65.86
21236;BME280;10775;42.678;26.324;2023-04-01T04:21:29;97805.75;;;8.68;65.68
21236;BME280;10775;42.678;26.324;2023-04-01T04:23:55;97803.03;;;8.71;65.56
21236;BME280;10775;42.678;26.324;2023-04-01T04:26:20;97798.50;;;8.80;66.99
21236;BME280;10775;42.678;26.324;2023-04-01T04:28:46;97790.59;;;8.83;67.04
21236;BME280;10775;42.678;26.324;2023-04-01T04:31:11;97792.06;;;8.93;64.84
21236;BME280;10775;42.678;26.324;2023-04-01T04:33:37;97790.94;;;9.02;65.02
21236;BME280;10775;42.678;26.324;2023-04-01T04:36:03;97783.81;;;9.08;67.82
21236;BME280;10775;42.678;26.324;2023-04-01T04:38:29;97772.47;;;9.09;63.96
21236;BME280;10775;42.678;26.324;2023-04-01T04:40:55;97769.88;;;9.09;66.43
21236;BME280;10775;42.678;26.324;2023-04-01T04:43:21;97758.47;;;9.13;63.98
21236;BME280;10775;42.678;26.324;2023-04-01T04:45:46;97766.81;;;9.25;66.14
21236;BME280;10775;42.678;26.324;2023-04-01T04:48:13;97765.06;;;9.25;67.12
21236;BME280;10775;42.678;26.324;2023-04-01T04:50:44;97756.50;;;9.22;65.25
21236;BME280;10775;42.678;26.324;2023-04-01T04:53:13;97748.44;;;9.29;67.07
21236;BME280;10775;42.678;26.324;2023-04-01T04:55:46;97741.19;;;9.39;63.11
21236;BME280;10775;42.678;26.324;2023-04-01T04:58:12;97740.88;;;9.50;66.88
21236;BME280;10775;42.678;26.324;2023-04-01T05:00:37;97736.31;;;9.56;62.26
21236;BME280;10775;42.678;26.324;2023-04-01T05:03:03;97736.97;;;9.63;65.14
21236;BME280;10775;42.678;26.324;2023-04-01T05:05:28;97734.31;;;9.65;64.23
21236;BME280;10775;42.678;26.324;2023-04-01T05:07:54;97726.53;;;9.63;63.67
21236;BME280;10775;42.678;26.324;2023-04-01T05:10:19;97724.59;;;9.70;63.36
21236;BME280;10775;42.678;26.324;2023-04-01T05:12:46;97718.34;;;9.74;62.74
21236;BME280;10775;42.678;26.324;2023-04-01T05:15:11;97714.03;;;9.74;64.70
21236;BME280;10775;42.678;26.324;2023-04-01T05:17:37;97712.25;;;9.75;61.38
21236;BME280;10775;42.678;26.324;2023-04-01T05:20:03;97702.63;;;9.77;62.22
21236;BME280;10775;42.678;26.324;2023-04-01T05:22:28;97709.25;;;9.87;64.26
21236;BME280;10775;42.678;26.324;2023-04-01T05:24:54;97718.50;;;9.97;60.80
21236;BME280;10775;42.678;26.324;2023-04-01T05:27:20;97724.31;;;10.06;60.13
21236;BME280;10775;42.678;26.324;2023-04-01T05:29:46;97726.81;;;10.09;60.31
21236;BME280;10775;42.678;26.324;2023-04-01T05:32:11;97728.72;;;10.04;59.82
21236;BME280;10775;42.678;26.324;2023-04-01T05:34:36;97736.72;;;9.99;59.77
21236;BME280;10775;42.678;26.324;2023-04-01T05:37:02;97731.56;;;9.97;63.60
21236;BME280;10775;42.678;26.324;2023-04-01T05:39:27;97742.06;;;9.94;60.90
21236;BME280;10775;42.678;26.324;2023-04-01T05:41:53;97740.28;;;9.96;67.02
21236;BME280;10775;42.678;26.324;2023-04-01T05:44:19;97743.72;;;9.97;70.03
21236;BME280;10775;42.678;26.324;2023-04-01T05:46:44;97741.78;;;10.04;73.75
21236;BME280;10775;42.678;26.324;2023-04-01T05:49:10;97734.44;;;10.15;71.57
21236;BME280;10775;42.678;26.324;2023-04-01T05:51:35;97734.44;;;10.15;80.92
21236;BME280;10775;42.678;26.324;2023-04-01T05:54:00;97728.81;;;10.27;72.41
21236;BME280;10775;42.678;26.324;2023-04-01T05:56:26;97738.16;;;10.61;75.83
21236;BME280;10775;42.678;26.324;2023-04-01T05:58:53;97741.88;;;10.79;75.15
21236;BME280;10775;42.678;26.324;2023-04-01T06:01:19;97731.28;;;11.07;70.51
21236;BME280;10775;42.678;26.324;2023-04-01T06:03:45;97734.97;;;11.25;63.22
21236;BME280;10775;42.678;26.324;2023-04-01T06:06:16;97731.38;;;11.27;63.08
21236;BME280;10775;42.678;26.324;2023-04-01T06:08:45;97729.63;;;11.28;70.17
21236;BME280;10775;42.678;26.324;2023-04-01T06:26:46;97737.75;;;12.52;60.19
21236;BME280;10775;42.678;26.324;2023-04-01T06:32:04;97735.66;;;12.20;72.03
21236;BME280;10775;42.678;26.324;2023-04-01T06:38:38;97734.34;;;12.30;63.10
21236;BME280;10775;42.678;26.324;2023-04-01T06:40:39;97728.78;;;12.58;61.03
21236;BME280;10775;42.678;26.324;2023-04-01T06:45:55;97731.44;;;13.16;58.04
21236;BME280;10775;42.678;26.324;2023-04-01T06:56:19;97717.00;;;13.45;72.85
21236;BME280;10775;42.678;26.324;2023-04-01T06:59:04;97703.38;;;13.92;68.43
21236;BME280;10775;42.678;26.324;2023-04-01T07:01:48;97701.44;;;13.79;67.31
21236;BME280;10775;42.678;26.324;2023-04-01T07:04:19;97710.50;;;13.35;71.01
21236;BME280;10775;42.678;26.324;2023-04-01T07:06:53;97706.44;;;13.28;70.60
21236;BME280;10775;42.678;26.324;2023-04-01T07:09:43;97701.59;;;13.93;66.52
21236;BME280;10775;42.678;26.324;2023-04-01T07:15:01;97708.06;;;14.57;67.21
21236;BME280;10775;42.678;26.324;2023-04-01T07:17:33;97709.44;;;14.47;67.58
21236;BME280;10775;42.678;26.324;2023-04-01T07:22:52;97685.72;;;14.99;66.96
21236;BME280;10775;42.678;26.324;2023-04-01T07:25:26;97687.53;;;15.46;65.90
21236;BME280;10775;42.678;26.324;2023-04-01T07:27:57;97684.38;;;15.87;63.19
21236;BME280;10775;42.678;26.324;2023-04-01T07:30:28;97675.13;;;16.26;63.01
21236;BME280;10775;42.678;26.324;2023-04-01T07:33:17;97676.44;;;16.33;58.54
21236;BME280;10775;42.678;26.324;2023-04-01T07:36:11;97675.44;;;15.90;60.97
21236;BME280;10775;42.678;26.324;2023-04-01T07:41:11;97664.31;;;16.45;61.60
21236;BME280;10775;42.678;26.324;2023-04-01T07:57:20;97647.84;;;14.86;65.65
21236;BME280;10775;42.678;26.324;2023-04-01T07:59:50;97663.25;;;14.76;66.63
21236;BME280;10775;42.678;26.324;2023-04-01T08:16:16;97642.97;;;14.78;68.54
21236;BME280;10775;42.678;26.324;2023-04-01T08:21:42;97643.97;;;15.09;67.53
21236;BME280;10775;42.678;26.324;2023-04-01T08:24:17;97638.34;;;15.15;67.84
21236;BME280;10775;42.678;26.324;2023-04-01T08:26:49;97638.84;;;15.69;65.52
21236;BME280;10775;42.678;26.324;2023-04-01T08:29:21;97642.94;;;15.75;65.34
21236;BME280;10775;42.678;26.324;2023-04-01T08:32:06;97630.84;;;15.86;64.86
21236;BME280;10775;42.678;26.324;2023-04-01T08:34:40;97610.69;;;16.16;63.38
21236;BME280;10775;42.678;26.324;2023-04-01T08:37:30;97595.34;;;15.78;64.65
21236;BME280;10775;42.678;26.324;2023-04-01T08:39:58;97599.00;;;15.43;65.67
21236;BME280;10775;42.678;26.324;2023-04-01T08:50:36;97590.34;;;17.72;59.42
21236;BME280;10775;42.678;26.324;2023-04-01T08:56:05;97579.19;;;17.94;60.24
21236;BME280;10775;42.678;26.324;2023-04-01T09:06:56;97563.25;;;18.73;58.36
21236;BME280;10775;42.678;26.324;2023-04-01T09:15:16;97566.53;;;17.32;63.03
21236;BME280;10775;42.678;26.324;2023-04-01T09:38:01;97528.81;;;17.70;63.67
21236;BME280;10775;42.678;26.324;2023-04-01T09:40:58;97517.13;;;17.47;65.41
21236;BME280;10775;42.678;26.324;2023-04-01T09:46:23;97524.84;;;17.90;64.67
21236;BME280;10775;42.678;26.324;2023-04-01T09:51:42;97510.75;;;17.77;62.68
21236;BME280;10775;42.678;26.324;2023-04-01T10:00:08;97496.09;;;18.11;62.79
21236;BME280;10775;42.678;26.324;2023-04-01T10:11:17;97496.13;;;17.71;64.90
21236;BME280;10775;42.678;26.324;2023-04-01T10:17:19;97479.25;;;17.87;66.00
21236;BME280;10775;42.678;26.324;2023-04-01T10:54:17;97400.13;;;17.45;69.70
21236;BME280;10775;42.678;26.324;2023-04-01T11:22:24;97349.53;;;17.90;68.61
21236;BME280;10775;42.678;26.324;2023-04-01T11:30:14;97332.72;;;17.91;68.12
21236;BME280;10775;42.678;26.324;2023-04-01T11:38:31;97327.88;;;17.59;70.00
21236;BME280;10775;42.678;26.324;2023-04-01T11:52:30;97295.44;;;19.03;65.71
21236;BME280;10775;42.678;26.324;2023-04-01T11:58:02;97280.94;;;18.84;65.20
21236;BME280;10775;42.678;26.324;2023-04-01T12:06:16;97256.53;;;18.92;64.91
21236;BME280;10775;42.678;26.324;2023-04-01T12:11:52;97257.31;;;19.39;63.13
21236;BME280;10775;42.678;26.324;2023-04-01T12:14:23;97254.91;;;19.36;63.16
21236;BME280;10775;42.678;26.324;2023-04-01T12:17:07;97240.69;;;19.37;62.63
21236;BME280;10775;42.678;26.324;2023-04-01T12:19:48;97240.34;;;18.84;64.16
21236;BME280;10775;42.678;26.324;2023-04-01T12:27:45;97228.59;;;18.77;65.13
21236;BME280;10775;42.678;26.324;2023-04-01T12:30:30;97224.88;;;19.02;63.70
21236;BME280;10775;42.678;26.324;2023-04-01T12:46:16;97195.88;;;19.57;59.89
21236;BME280;10775;42.678;26.324;2023-04-01T13:08:00;97204.09;;;18.62;63.50
21236;BME280;10775;42.678;26.324;2023-04-01T13:26:59;97183.06;;;18.72;55.20
21236;BME280;10775;42.678;26.324;2023-04-01T13:29:38;97170.34;;;18.77;56.88
21236;BME280;10775;42.678;26.324;2023-04-01T13:32:19;97161.94;;;19.05;55.43
21236;BME280;10775;42.678;26.324;2023-04-01T13:37:21;97154.47;;;18.99;56.05
21236;BME280;10775;42.678;26.324;2023-04-01T13:40:04;97158.56;;;18.92;53.41
21236;BME280;10775;42.678;26.324;2023-04-01T13:56:33;97124.69;;;18.73;59.09
21236;BME280;10775;42.678;26.324;2023-04-01T14:02:30;97128.16;;;18.51;60.34
21236;BME280;10775;42.678;26.324;2023-04-01T14:13:28;97106.72;;;18.32;58.17
21236;BME280;10775;42.678;26.324;2023-04-01T14:16:32;97103.81;;;18.35;57.14
21236;BME280;10775;42.678;26.324;2023-04-01T14:19:17;97109.00;;;18.36;56.58
21236;BME280;10775;42.678;26.324;2023-04-01T14:40:32;97073.59;;;18.03;56.63
21236;BME280;10775;42.678;26.324;2023-04-01T14:43:28;97053.75;;;17.98;57.67
21236;BME280;10775;42.678;26.324;2023-04-01T14:46:29;97040.75;;;17.95;59.38
21236;BME280;10775;42.678;26.324;2023-04-01T14:48:57;97028.72;;;17.91;58.70
21236;BME280;10775;42.678;26.324;2023-04-01T14:51:33;97036.75;;;17.89;60.05
21236;BME280;10775;42.678;26.324;2023-04-01T14:56:42;97030.03;;;17.85;60.22
21236;BME280;10775;42.678;26.324;2023-04-01T14:59:15;97026.75;;;17.81;59.23
21236;BME280;10775;42.678;26.324;2023-04-01T15:02:02;97038.22;;;17.82;59.55
21236;BME280;10775;42.678;26.324;2023-04-01T15:13:03;97047.00;;;17.70;59.63
21236;BME280;10775;42.678;26.324;2023-04-01T15:24:10;97052.38;;;17.57;61.01
21236;BME280;10775;42.678;26.324;2023-04-01T15:29:33;97057.97;;;17.52;61.55
21236;BME280;10775;42.678;26.324;2023-04-01T15:34:48;97049.56;;;17.47;61.18
21236;BME280;10775;42.678;26.324;2023-04-01T15:40:20;97054.44;;;17.41;61.29
21236;BME280;10775;42.678;26.324;2023-04-01T15:43:18;97065.22;;;17.37;61.45
21236;BME280;10775;42.678;26.324;2023-04-01T15:48:17;97111.16;;;17.11;57.89
21236;BME280;10775;42.678;26.324;2023-04-01T16:25:40;97145.25;;;13.03;87.36
21236;BME280;10775;42.678;26.324;2023-04-01T16:33:56;97088.53;;;12.69;90.34
21236;BME280;10775;42.678;26.324;2023-04-01T16:36:30;97119.84;;;12.72;91.83
21236;BME280;10775;42.678;26.324;2023-04-01T16:42:16;97116.56;;;13.00;75.70
21236;BME280;10775;42.678;26.324;2023-04-01T16:44:54;97110.81;;;12.93;83.99
21236;BME280;10775;42.678;26.324;2023-04-01T16:47:30;97134.91;;;12.68;79.21
21236;BME280;10775;42.678;26.324;2023-04-01T16:53:14;97120.97;;;12.83;81.93
21236;BME280;10775;42.678;26.324;2023-04-01T16:55:49;97115.03;;;12.80;83.04
21236;BME280;10775;42.678;26.324;2023-04-01T16:58:26;97121.72;;;12.86;79.88
21236;BME280;10775;42.678;26.324;2023-04-01T17:01:05;97121.03;;;12.82;76.69
21236;BME280;10775;42.678;26.324;2023-04-01T17:03:46;97118.50;;;12.80;76.94
21236;BME280;10775;42.678;26.324;2023-04-01T17:21:39;97170.38;;;12.58;82.36
21236;BME280;10775;42.678;26.324;2023-04-01T17:23:50;97179.25;;;12.55;76.22
21236;BME280;10775;42.678;26.324;2023-04-01T17:26:32;97167.66;;;12.59;77.77
21236;BME280;10775;42.678;26.324;2023-04-01T17:29:16;97186.94;;;12.58;70.73
21236;BME280;10775;42.678;26.324;2023-04-01T17:31:48;97191.09;;;12.62;82.37
21236;BME280;10775;42.678;26.324;2023-04-01T17:40:29;97200.84;;;12.60;73.04
21236;BME280;10775;42.678;26.324;2023-04-01T17:42:47;97224.66;;;12.56;75.67
21236;BME280;10775;42.678;26.324;2023-04-01T17:45:28;97241.22;;;12.56;70.51
21236;BME280;10775;42.678;26.324;2023-04-01T17:53:30;97267.50;;;12.55;78.90
21236;BME280;10775;42.678;26.324;2023-04-01T18:13:05;97277.94;;;12.74;71.37
21236;BME280;10775;42.678;26.324;2023-04-01T18:21:27;97294.97;;;12.48;75.84
21236;BME280;10775;42.678;26.324;2023-04-01T18:23:58;97303.34;;;12.37;76.10
21236;BME280;10775;42.678;26.324;2023-04-01T18:26:35;97323.56;;;12.35;74.90
21236;BME280;10775;42.678;26.324;2023-04-01T18:31:55;97341.66;;;12.39;68.96
21236;BME280;10775;42.678;26.324;2023-04-01T18:39:51;97354.84;;;12.38;81.10
21236;BME280;10775;42.678;26.324;2023-04-01T18:42:41;97354.06;;;12.36;81.33
21236;BME280;10775;42.678;26.324;2023-04-01T18:48:28;97362.50;;;12.24;76.49
21236;BME280;10775;42.678;26.324;2023-04-01T18:50:59;97368.75;;;12.21;80.30
21236;BME280;10775;42.678;26.324;2023-04-01T18:53:52;97370.50;;;12.21;85.25
21236;BME280;10775;42.678;26.324;2023-04-01T18:56:35;97368.19;;;12.14;86.74
21236;BME280;10775;42.678;26.324;2023-04-01T18:59:18;97364.31;;;12.04;82.51
21236;BME280;10775;42.678;26.324;2023-04-01T19:07:39;97340.66;;;11.87;85.40
21236;BME280;10775;42.678;26.324;2023-04-01T19:10:31;97337.53;;;11.79;78.27
21236;BME280;10775;42.678;26.324;2023-04-01T19:18:29;97346.84;;;11.65;75.04
21236;BME280;10775;42.678;26.324;2023-04-01T19:21:19;97357.19;;;11.68;78.74
21236;BME280;10775;42.678;26.324;2023-04-01T19:26:45;97371.19;;;11.67;86.88
21236;BME280;10775;42.678;26.324;2023-04-01T19:29:22;97386.19;;;11.64;86.12
21236;BME280;10775;42.678;26.324;2023-04-01T19:45:31;97469.50;;;11.34;82.20
21236;BME280;10775;42.678;26.324;2023-04-01T19:48:32;97465.91;;;11.36;90.17
21236;BME280;10775;42.678;26.324;2023-04-01T19:56:23;97424.75;;;12.00;78.18
21236;BME280;10775;42.678;26.324;2023-04-01T20:02:29;97420.44;;;12.17;80.40
21236;BME280;10775;42.678;26.324;2023-04-01T20:05:15;97380.03;;;12.04;84.51
21236;BME280;10775;42.678;26.324;2023-04-01T20:07:52;97370.63;;;11.80;87.29
21236;BME280;10775;42.678;26.324;2023-04-01T20:13:33;97346.19;;;11.60;88.35
21236;BME280;10775;42.678;26.324;2023-04-01T20:16:06;97347.75;;;11.64;87.54
21236;BME280;10775;42.678;26.324;2023-04-01T20:18:55;97353.94;;;11.63;86.15
21236;BME280;10775;42.678;26.324;2023-04-01T20:26:37;97356.59;;;11.81;81.21
21236;BME280;10775;42.678;26.324;2023-04-01T20:32:04;97372.59;;;11.56;82.20
21236;BME280;10775;42.678;26.324;2023-04-01T20:37:28;97370.22;;;11.30;87.06
21236;BME280;10775;42.678;26.324;2023-04-01T20:51:14;97400.13;;;11.64;79.61
21236;BME280;10775;42.678;26.324;2023-04-01T20:53:43;97409.88;;;11.61;75.48
21236;BME280;10775;42.678;26.324;2023-04-01T20:56:23;97427.22;;;11.63;76.94
21236;BME280;10775;42.678;26.324;2023-04-01T21:12:25;97426.59;;;11.77;76.30
21236;BME280;10775;42.678;26.324;2023-04-01T21:22:54;97419.44;;;11.62;78.31
21236;BME280;10775;42.678;26.324;2023-04-01T21:26:04;97413.50;;;11.58;78.55
21236;BME280;10775;42.678;26.324;2023-04-01T21:44:43;97420.03;;;11.48;77.35
21236;BME280;10775;42.678;26.324;2023-04-01T21:55:56;97431.09;;;11.34;76.01
21236;BME280;10775;42.678;26.324;2023-04-01T22:14:39;97457.97;;;11.17;75.48
21236;BME280;10775;42.678;26.324;2023-04-01T22:17:25;97460.78;;;11.13;75.19
21236;BME280;10775;42.678;26.324;2023-04-01T22:20:16;97466.06;;;11.11;75.23
21236;BME280;10775;42.678;26.324;2023-04-01T22:22:55;97479.94;;;11.13;74.75
21236;BME280;10775;42.678;26.324;2023-04-01T22:25:34;97463.25;;;11.16;71.34
21236;BME280;10775;42.678;26.324;2023-04-01T22:28:09;97472.28;;;11.29;69.48
21236;BME280;10775;42.678;26.324;2023-04-01T22:30:51;97483.91;;;11.22;71.73
21236;BME280;10775;42.678;26.324;2023-04-01T22:50:18;97467.56;;;10.74;74.56
21236;BME280;10775;42.678;26.324;2023-04-01T22:52:46;97482.94;;;10.82;72.90
21236;BME280;10775;42.678;26.324;2023-04-01T22:55:27;97460.88;;;10.89;73.74
21236;BME280;10775;42.678;26.324;2023-04-01T22:58:00;97473.88;;;10.91;71.87
21236;BME280;10775;42.678;26.324;2023-04-01T23:05:55;97474.41;;;10.99;72.32
21236;BME280;10775;42.678;26.324;2023-04-01T23:22:30;97483.97;;;11.00;70.45
21236;BME280;10775;42.678;26.324;2023-04-01T23:25:18;97493.81;;;10.93;71.42
21236;BME280;10775;42.678;26.324;2023-04-01T23:35:51;97490.22;;;10.96;70.16
21236;BME280;10775;42.678;26.324;2023-04-01T23:38:20;97497.56;;;10.86;71.47
21236;BME280;10775;42.678;26.324;2023-04-01T23:40:49;97502.63;;;10.91;71.91
21236;BME280;10775;42.678;26.324;2023-04-01T23:43:25;97507.06;;;10.88;71.79
21236;BME280;10775;42.678;26.324;2023-04-01T23:45:55;97514.38;;;10.80;72.89
21236;BME280;10775;42.678;26.324;2023-04-01T23:48:29;97520.63;;;10.76;71.60
21236;BME280;10775;42.678;26.324;2023-04-01T23:50:56;97519.84;;;10.74;71.49
21236;BME280;10775;42.678;26.324;2023-04-01T23:53:25;97517.34;;;10.71;72.90
21236;BME280;10775;42.678;26.324;2023-04-01T23:55:52;97515.47;;;10.75;70.81
21236;BME280;10775;42.678;26.324;2023-04-01T23:58:48;97511.53;;;10.86;71.43
